createdAt,value
2019-02-05T00:00:40.744Z,-0.80
2019-02-05T00:03:11.600Z,-0.80
2019-02-05T00:05:40.804Z,-0.80
2019-02-05T00:08:09.641Z,-0.80
2019-02-05T00:10:38.609Z,-0.80
2019-02-05T00:13:07.430Z,-0.80
2019-02-05T00:15:36.377Z,-0.80
2019-02-05T00:18:05.381Z,-0.70
2019-02-05T00:20:34.155Z,-0.80
2019-02-05T00:23:02.912Z,-0.80
2019-02-05T00:25:31.769Z,-0.90
2019-02-05T00:28:00.604Z,-1.00
2019-02-05T00:30:29.749Z,-1.00
2019-02-05T00:32:58.529Z,-0.90
2019-02-05T00:35:27.271Z,-0.90
2019-02-05T00:37:56.036Z,-0.80
2019-02-05T00:40:24.772Z,-0.80
2019-02-05T00:42:53.625Z,-0.80
2019-02-05T00:45:22.662Z,-0.80
2019-02-05T00:47:51.509Z,-0.80
2019-02-05T00:50:20.450Z,-0.90
2019-02-05T00:52:49.289Z,-0.80
2019-02-05T00:55:19.541Z,-0.80
2019-02-05T00:57:48.338Z,-0.90
2019-02-05T01:00:20.745Z,-0.90
2019-02-05T01:02:49.938Z,-0.80
2019-02-05T01:05:19.313Z,-0.80
2019-02-05T01:07:48.220Z,-0.90
2019-02-05T01:10:17.392Z,-0.90
2019-02-05T01:12:46.150Z,-0.90
2019-02-05T01:15:19.694Z,-0.90
2019-02-05T01:17:48.437Z,-0.90
2019-02-05T01:20:21.546Z,-1.00
2019-02-05T01:22:50.659Z,-0.90
2019-02-05T01:25:20.364Z,-0.90
2019-02-05T01:27:50.365Z,-1.00
2019-02-05T01:31:46.320Z,-1.00
2019-02-05T01:34:15.061Z,-1.10
2019-02-05T01:36:43.825Z,-1.10
2019-02-05T01:39:12.637Z,-1.10
2019-02-05T01:41:41.407Z,-1.10
2019-02-05T01:44:10.149Z,-1.10
2019-02-05T01:46:38.912Z,-1.00
2019-02-05T01:49:07.734Z,-1.10
2019-02-05T01:51:36.500Z,-1.20
2019-02-05T01:54:05.604Z,-1.20
2019-02-05T01:56:40.841Z,-1.10
2019-02-05T01:59:05.348Z,-1.10
2019-02-05T02:01:34.221Z,-1.10
2019-02-05T02:04:02.993Z,-1.10
2019-02-05T02:06:31.826Z,-1.20
2019-02-05T02:09:00.671Z,-1.20
2019-02-05T02:11:29.481Z,-1.20
2019-02-05T02:13:58.252Z,-1.20
2019-02-05T02:16:26.989Z,-1.30
2019-02-05T02:18:55.765Z,-1.30
2019-02-05T02:21:24.580Z,-1.30
2019-02-05T02:23:53.353Z,-1.30
2019-02-05T02:26:22.342Z,-1.30
2019-02-05T02:28:51.113Z,-1.30
2019-02-05T02:31:19.929Z,-1.20
2019-02-05T02:33:48.703Z,-1.20
2019-02-05T02:36:17.497Z,-1.20
2019-02-05T02:38:46.411Z,-1.20
2019-02-05T02:41:15.241Z,-1.10
2019-02-05T02:43:43.977Z,-1.20
2019-02-05T02:46:12.753Z,-1.30
2019-02-05T02:48:41.600Z,-1.20
2019-02-05T02:51:10.366Z,-1.20
2019-02-05T02:53:39.190Z,-1.20
2019-02-05T02:56:07.940Z,-1.20
2019-02-05T02:58:36.750Z,-1.20
2019-02-05T03:01:05.737Z,-1.20
2019-02-05T03:03:34.478Z,-1.20
2019-02-05T03:06:03.240Z,-1.30
2019-02-05T03:08:31.981Z,-1.30
2019-02-05T03:11:00.803Z,-1.30
2019-02-05T03:13:29.584Z,-1.30
2019-02-05T03:15:58.360Z,-1.30
2019-02-05T03:18:27.225Z,-1.30
2019-02-05T03:20:55.968Z,-1.30
2019-02-05T03:23:24.743Z,-1.30
2019-02-05T03:25:53.484Z,-1.30
2019-02-05T03:28:22.272Z,-1.40
2019-02-05T03:30:51.014Z,-1.30
2019-02-05T03:33:21.456Z,-1.30
2019-02-05T03:35:50.262Z,-1.30
2019-02-05T03:38:19.038Z,-1.30
2019-02-05T03:40:59.941Z,-1.40
2019-02-05T03:43:28.927Z,-1.30
2019-02-05T03:45:58.869Z,-1.40
2019-02-05T03:48:28.233Z,-1.40
2019-02-05T03:51:08.806Z,-1.40
2019-02-05T03:53:52.317Z,-1.40
2019-02-05T03:56:26.573Z,-1.50
2019-02-05T03:59:13.066Z,-1.50
2019-02-05T04:01:59.825Z,-1.40
2019-02-05T04:04:34.242Z,-1.40
2019-02-05T04:07:18.131Z,-1.50
2019-02-05T04:10:21.312Z,-1.50
2019-02-05T04:12:56.118Z,-1.50
2019-02-05T04:15:42.679Z,-1.50
2019-02-05T04:18:26.182Z,-1.60
2019-02-05T04:21:22.033Z,-1.60
2019-02-05T04:24:14.862Z,-1.60
2019-02-05T04:27:09.406Z,-1.60
2019-02-05T04:29:47.059Z,-1.50
2019-02-05T04:32:27.738Z,-1.50
2019-02-05T04:35:05.437Z,-1.50
2019-02-05T04:37:55.328Z,-1.50
2019-02-05T04:40:38.220Z,-1.50
2019-02-05T04:43:29.645Z,-1.50
2019-02-05T04:46:04.617Z,-1.50
2019-02-05T04:48:54.621Z,-1.60
2019-02-05T04:51:53.502Z,-1.60
2019-02-05T04:54:41.854Z,-1.50
2019-02-05T04:57:16.774Z,-1.60
2019-02-05T04:59:48.852Z,-1.60
2019-02-05T05:02:46.332Z,-1.70
2019-02-05T05:05:33.338Z,-1.70
2019-02-05T05:08:23.433Z,-1.80
2019-02-05T05:10:52.171Z,-1.80
2019-02-05T05:13:21.062Z,-1.80
2019-02-05T05:15:50.088Z,-1.80
2019-02-05T05:18:18.865Z,-1.80
2019-02-05T05:20:48.229Z,-1.90
2019-02-05T05:23:16.970Z,-1.90
2019-02-05T05:25:45.841Z,-1.80
2019-02-05T05:28:14.575Z,-1.80
2019-02-05T05:30:43.447Z,-1.80
2019-02-05T05:33:12.594Z,-1.90
2019-02-05T05:35:44.492Z,-2.00
2019-02-05T05:38:11.836Z,-2.00
2019-02-05T05:40:40.610Z,-2.10
2019-02-05T05:43:09.349Z,-2.00
2019-02-05T05:45:38.131Z,-1.90
2019-02-05T05:48:06.873Z,-1.90
2019-02-05T05:50:35.657Z,-1.90
2019-02-05T05:53:04.527Z,-1.90
2019-02-05T05:55:33.305Z,-1.90
2019-02-05T05:58:02.141Z,-1.90
2019-02-05T06:00:31.000Z,-1.90
2019-02-05T06:02:59.729Z,-1.90
2019-02-05T06:05:28.595Z,-1.90
2019-02-05T06:07:57.334Z,-2.00
2019-02-05T06:10:28.968Z,-2.10
2019-02-05T06:12:57.793Z,-2.10
2019-02-05T06:15:26.681Z,-2.00
2019-02-05T06:17:55.483Z,-2.10
2019-02-05T06:20:24.374Z,-2.00
2019-02-05T06:22:53.551Z,-2.10
2019-02-05T06:25:22.644Z,-2.20
2019-02-05T06:27:51.433Z,-2.20
2019-02-05T06:30:20.242Z,-2.30
2019-02-05T06:32:49.097Z,-2.30
2019-02-05T06:35:17.841Z,-2.30
2019-02-05T06:37:46.673Z,-2.40
2019-02-05T06:40:20.877Z,-2.40
2019-02-05T06:42:49.649Z,-2.50
2019-02-05T06:45:18.385Z,-2.50
2019-02-05T06:47:47.520Z,-2.50
2019-02-05T06:50:16.653Z,-2.50
2019-02-05T06:52:45.423Z,-2.40
2019-02-05T06:55:15.357Z,-2.40
2019-02-05T06:57:44.127Z,-2.50
2019-02-05T07:00:21.004Z,-2.60
2019-02-05T07:02:52.768Z,-2.60
2019-02-05T07:05:20.193Z,-2.60
2019-02-05T07:07:49.020Z,-2.70
2019-02-05T07:10:20.656Z,-2.60
2019-02-05T07:12:49.433Z,-2.60
2019-02-05T07:15:18.172Z,-2.70
2019-02-05T07:17:49.943Z,-2.60
2019-02-05T07:20:17.922Z,-2.70
2019-02-05T07:22:48.446Z,-2.80
2019-02-05T07:25:21.076Z,-2.70
2019-02-05T07:27:50.249Z,-2.70
2019-02-05T07:30:24.103Z,-2.70
2019-02-05T07:32:52.877Z,-2.60
2019-02-05T07:35:21.852Z,-2.50
2019-02-05T07:37:50.587Z,-2.50
2019-02-05T07:40:21.157Z,-2.50
2019-02-05T07:42:51.889Z,-2.40
2019-02-05T07:45:22.450Z,-2.30
2019-02-05T07:47:51.264Z,-2.10
2019-02-05T07:50:27.431Z,-2.10
2019-02-05T07:52:56.168Z,-2.10
2019-02-05T07:55:25.354Z,-2.10
2019-02-05T07:57:54.104Z,-2.00
2019-02-05T08:00:30.488Z,-2.00
2019-02-05T08:02:59.226Z,-1.90
2019-02-05T08:05:30.468Z,-1.80
2019-02-05T08:07:59.697Z,-1.80
2019-02-05T08:10:29.066Z,-1.90
2019-02-05T08:12:57.905Z,-1.90
2019-02-05T08:15:31.837Z,-1.90
2019-02-05T08:18:00.782Z,-1.90
2019-02-05T08:20:29.573Z,-2.00
2019-02-05T08:22:58.317Z,-2.00
2019-02-05T08:25:27.052Z,-2.00
2019-02-05T08:27:56.126Z,-2.00
2019-02-05T08:30:34.154Z,-2.00
2019-02-05T08:33:02.933Z,-1.90
2019-02-05T08:35:31.832Z,-1.80
2019-02-05T08:38:00.966Z,-1.70
2019-02-05T08:40:29.700Z,-1.60
2019-02-05T08:42:58.477Z,-1.60
2019-02-05T08:45:32.816Z,-1.60
2019-02-05T08:48:01.577Z,-1.60
2019-02-05T08:50:31.321Z,-1.50
2019-02-05T08:53:00.094Z,-1.50
2019-02-05T08:55:30.916Z,-1.50
2019-02-05T08:58:10.750Z,-1.40
2019-02-05T09:00:41.022Z,-1.40
2019-02-05T09:03:11.400Z,-1.30
2019-02-05T09:05:40.466Z,-1.10
2019-02-05T09:08:09.202Z,-0.80
2019-02-05T09:10:40.340Z,-0.80
2019-02-05T09:13:09.489Z,-0.70
2019-02-05T09:15:38.252Z,-0.60
2019-02-05T09:18:07.297Z,-0.50
2019-02-05T09:20:36.140Z,-0.50
2019-02-05T09:23:05.678Z,-0.30
2019-02-05T09:25:34.445Z,-0.30
2019-02-05T09:28:03.192Z,-0.50
2019-02-05T09:30:36.658Z,-0.50
2019-02-05T09:33:13.937Z,-0.70
2019-02-05T09:35:42.702Z,-0.80
2019-02-05T09:38:11.436Z,-0.90
2019-02-05T09:40:40.288Z,-1.00
2019-02-05T09:43:09.065Z,-1.20
2019-02-05T09:45:38.133Z,-1.40
2019-02-05T09:48:06.906Z,-1.30
2019-02-05T09:50:44.300Z,-1.30
2019-02-05T09:53:06.061Z,-1.10
2019-02-05T09:55:36.206Z,-1.20
2019-02-05T09:58:05.253Z,-1.30
2019-02-05T10:00:37.397Z,-1.20
2019-02-05T10:03:07.174Z,-1.20
2019-02-05T10:05:36.512Z,-1.10
2019-02-05T10:08:06.300Z,-0.90
2019-02-05T10:10:35.155Z,-0.90
2019-02-05T10:13:04.234Z,-0.80
2019-02-05T10:15:38.178Z,-0.70
2019-02-05T10:18:08.733Z,-0.60
2019-02-05T10:20:37.473Z,-0.60
2019-02-05T10:23:06.809Z,-0.70
2019-02-05T10:25:36.425Z,-0.80
2019-02-05T10:28:05.470Z,-0.80
2019-02-05T10:30:37.101Z,-0.90
2019-02-05T10:33:07.251Z,-0.80
2019-02-05T10:35:36.224Z,-0.80
2019-02-05T10:38:05.854Z,-0.60
2019-02-05T10:40:34.696Z,-0.60
2019-02-05T10:43:04.570Z,-0.50
2019-02-05T10:45:33.542Z,-0.50
2019-02-05T10:48:02.687Z,-0.40
2019-02-05T10:50:31.517Z,-0.20
2019-02-05T10:53:00.261Z,-0.30
2019-02-05T10:55:29.050Z,-0.20
2019-02-05T10:57:57.761Z,0.00
2019-02-05T11:00:28.734Z,-0.10
2019-02-05T11:02:59.973Z,0.00
2019-02-05T11:05:29.934Z,0.00
2019-02-05T11:07:58.669Z,0.10
2019-02-05T11:10:27.501Z,0.10
2019-02-05T11:12:56.270Z,0.10
2019-02-05T11:15:32.873Z,0.20
2019-02-05T11:18:03.210Z,0.20
2019-02-05T11:20:32.272Z,0.20
2019-02-05T11:23:01.072Z,0.30
2019-02-05T11:25:29.849Z,0.20
2019-02-05T11:27:58.617Z,0.30
2019-02-05T11:30:35.720Z,0.60
2019-02-05T11:33:04.690Z,0.40
2019-02-05T11:35:33.726Z,0.40
2019-02-05T11:38:02.690Z,0.30
2019-02-05T11:40:33.727Z,0.40
2019-02-05T11:43:02.497Z,0.40
2019-02-05T11:45:31.533Z,0.30
2019-02-05T11:48:01.702Z,0.60
2019-02-05T11:50:30.529Z,0.60
2019-02-05T11:52:59.281Z,0.60
2019-02-05T11:55:35.557Z,0.60
2019-02-05T11:58:04.897Z,0.70
2019-02-05T12:00:41.860Z,0.70
2019-02-05T12:03:11.097Z,0.70
2019-02-05T12:05:40.257Z,0.70
2019-02-05T12:08:09.093Z,0.70
2019-02-05T12:10:37.858Z,0.70
2019-02-05T12:13:06.592Z,0.60
2019-02-05T12:15:35.358Z,0.70
2019-02-05T12:18:04.388Z,0.70
2019-02-05T12:20:33.185Z,0.80
2019-02-05T12:23:02.868Z,0.70
2019-02-05T12:25:32.876Z,0.70
2019-02-05T12:28:01.665Z,0.70
2019-02-05T12:30:45.138Z,0.80
2019-02-05T12:33:09.869Z,0.70
2019-02-05T12:35:38.637Z,0.60
2019-02-05T12:38:07.785Z,0.60
2019-02-05T12:40:37.318Z,0.70
2019-02-05T12:43:06.276Z,0.70
2019-02-05T12:45:36.813Z,0.60
2019-02-05T12:48:06.648Z,0.60
2019-02-05T12:50:40.922Z,0.60
2019-02-05T12:53:09.764Z,0.50
2019-02-05T12:55:38.773Z,0.60
2019-02-05T12:58:08.107Z,0.60
2019-02-05T13:00:42.173Z,0.70
2019-02-05T13:03:11.740Z,0.70
2019-02-05T13:05:41.873Z,0.70
2019-02-05T13:08:10.636Z,0.70
2019-02-05T13:10:42.145Z,0.60
2019-02-05T13:13:11.108Z,0.60
2019-02-05T13:15:39.849Z,0.40
2019-02-05T13:18:09.020Z,0.60
2019-02-05T13:20:38.058Z,0.50
2019-02-05T13:23:07.835Z,0.50
2019-02-05T13:25:36.566Z,0.50
2019-02-05T13:28:07.528Z,0.30
2019-02-05T13:30:37.681Z,0.40
2019-02-05T13:33:08.321Z,0.40
2019-02-05T13:35:37.590Z,0.40
2019-02-05T13:38:06.530Z,0.30
2019-02-05T13:40:35.297Z,0.30
2019-02-05T13:43:04.757Z,0.30
2019-02-05T13:45:35.597Z,0.20
2019-02-05T13:48:05.633Z,0.10
2019-02-05T13:50:34.414Z,-0.10
2019-02-05T13:53:03.245Z,-0.20
2019-02-05T13:55:34.644Z,-0.40
2019-02-05T13:58:03.777Z,-0.40
2019-02-05T14:00:38.160Z,-0.40
2019-02-05T14:03:09.013Z,-0.50
2019-02-05T14:05:38.077Z,-0.60
2019-02-05T14:08:07.051Z,-0.50
2019-02-05T14:10:38.361Z,-0.50
2019-02-05T14:13:07.231Z,-0.40
2019-02-05T14:15:38.503Z,-0.40
2019-02-05T14:18:08.149Z,-0.40
2019-02-05T14:20:37.116Z,-0.30
2019-02-05T14:23:06.065Z,-0.30
2019-02-05T14:25:35.044Z,-0.20
2019-02-05T14:28:03.830Z,-0.10
2019-02-05T14:30:44.737Z,-0.30
2019-02-05T14:33:13.512Z,-0.10
2019-02-05T14:35:42.244Z,-0.10
2019-02-05T14:38:11.111Z,0.10
2019-02-05T14:40:39.853Z,0.10
2019-02-05T14:43:08.696Z,0.00
2019-02-05T14:45:37.931Z,0.00
2019-02-05T14:48:07.648Z,-0.20
2019-02-05T14:50:41.816Z,-0.20
2019-02-05T14:53:10.986Z,-0.20
2019-02-05T14:55:39.749Z,-0.10
2019-02-05T14:58:10.116Z,-0.20
2019-02-05T15:00:39.169Z,-0.40
2019-02-05T15:03:12.228Z,-0.50
2019-02-05T15:05:41.572Z,-0.70
2019-02-05T15:08:11.205Z,-0.70
2019-02-05T15:10:39.976Z,-0.50
2019-02-05T15:13:09.081Z,-0.50
2019-02-05T15:15:37.961Z,-0.70
2019-02-05T15:18:08.295Z,-0.80
2019-02-05T15:20:39.814Z,-0.70
2019-02-05T15:23:08.933Z,-0.60
2019-02-05T15:25:37.980Z,-0.60
2019-02-05T15:28:07.117Z,-0.80
2019-02-05T15:30:40.810Z,-0.80
2019-02-05T15:33:19.797Z,-0.80
2019-02-05T15:35:50.598Z,-0.80
2019-02-05T15:38:19.315Z,-0.70
2019-02-05T15:40:48.485Z,-0.80
2019-02-05T15:43:17.780Z,-0.80
2019-02-05T15:45:47.188Z,-0.60
2019-02-05T15:48:15.932Z,-0.90
2019-02-05T15:50:45.649Z,-1.00
2019-02-05T15:53:14.422Z,-1.10
2019-02-05T15:55:43.643Z,-1.20
2019-02-05T15:58:12.654Z,-1.10
2019-02-05T16:00:42.485Z,-1.20
2019-02-05T16:03:13.109Z,-1.20
2019-02-05T16:05:42.197Z,-1.20
2019-02-05T16:08:11.049Z,-1.10
2019-02-05T16:10:40.082Z,-1.20
2019-02-05T16:13:09.036Z,-1.30
2019-02-05T16:15:38.760Z,-1.20
2019-02-05T16:18:08.009Z,-1.20
2019-02-05T16:20:36.753Z,-1.30
2019-02-05T16:23:05.803Z,-1.30
2019-02-05T16:25:34.853Z,-1.40
2019-02-05T16:28:03.788Z,-1.40
2019-02-05T16:30:33.420Z,-1.40
2019-02-05T16:33:02.205Z,-1.40
2019-02-05T16:35:30.970Z,-1.30
2019-02-05T16:37:59.885Z,-1.40
2019-02-05T16:40:37.206Z,-1.40
2019-02-05T16:43:06.711Z,-1.40
2019-02-05T16:45:35.449Z,-1.40
2019-02-05T16:48:05.002Z,-1.50
2019-02-05T16:50:50.449Z,-1.50
2019-02-05T16:53:19.782Z,-1.50
2019-02-05T16:55:48.558Z,-1.50
2019-02-05T16:58:17.805Z,-1.70
2019-02-05T17:00:46.717Z,-1.80
2019-02-05T17:03:16.476Z,-1.80
2019-02-05T17:05:45.662Z,-1.80
2019-02-05T17:08:14.614Z,-1.80
2019-02-05T17:10:43.446Z,-1.90
2019-02-05T17:13:12.291Z,-1.90
2019-02-05T17:15:41.159Z,-1.90
2019-02-05T17:18:09.994Z,-1.90
2019-02-05T17:20:38.955Z,-1.90
2019-02-05T17:23:08.120Z,-1.90
2019-02-05T17:25:36.933Z,-1.90
2019-02-05T17:28:07.200Z,-1.80
2019-02-05T17:30:38.389Z,-1.80
2019-02-05T17:33:07.461Z,-1.80
2019-02-05T17:35:36.405Z,-1.80
2019-02-05T17:38:07.452Z,-1.90
2019-02-05T17:40:36.511Z,-1.80
2019-02-05T17:43:06.073Z,-1.80
2019-02-05T17:45:37.185Z,-1.70
2019-02-05T17:48:11.700Z,-1.70
2019-02-05T17:50:40.732Z,-1.70
2019-02-05T17:53:09.502Z,-1.70
2019-02-05T17:55:38.240Z,-1.70
2019-02-05T17:58:07.106Z,-1.70
2019-02-05T18:00:47.037Z,-1.80
2019-02-05T18:03:15.920Z,-1.80
2019-02-05T18:05:44.845Z,-1.80
2019-02-05T18:08:13.694Z,-1.80
2019-02-05T18:10:42.595Z,-1.80
2019-02-05T18:13:17.650Z,-1.90
2019-02-05T18:15:47.674Z,-1.80
2019-02-05T18:18:16.733Z,-1.90
2019-02-05T18:20:45.686Z,-1.80
2019-02-05T18:23:14.422Z,-1.90
2019-02-05T18:25:45.413Z,-1.90
2019-02-05T18:28:13.809Z,-1.80
2019-02-05T18:30:43.170Z,-1.80
2019-02-05T18:33:12.221Z,-1.70
2019-02-05T18:35:40.998Z,-1.60
2019-02-05T18:38:16.956Z,-1.70
2019-02-05T18:40:45.879Z,-1.60
2019-02-05T18:43:14.641Z,-1.60
2019-02-05T18:45:43.419Z,-1.60
2019-02-05T18:48:14.523Z,-1.60
2019-02-05T18:50:43.141Z,-1.60
2019-02-05T18:53:12.095Z,-1.50
2019-02-05T18:55:46.328Z,-1.50
2019-02-05T18:58:15.142Z,-1.60
2019-02-05T19:00:45.290Z,-1.50
2019-02-05T19:03:15.842Z,-1.50
2019-02-05T19:05:45.835Z,-1.60
2019-02-05T19:08:16.604Z,-1.50
2019-02-05T19:10:44.976Z,-1.50
2019-02-05T19:13:13.752Z,-1.40
2019-02-05T19:15:43.383Z,-1.40
2019-02-05T19:18:12.478Z,-1.40
2019-02-05T19:20:41.318Z,-1.30
2019-02-05T19:23:10.737Z,-1.30
2019-02-05T19:25:46.889Z,-1.40
2019-02-05T19:28:17.337Z,-1.30
2019-02-05T19:30:47.754Z,-1.30
2019-02-05T19:33:26.789Z,-1.40
2019-02-05T19:35:46.981Z,-1.40
2019-02-05T19:38:15.729Z,-1.40
2019-02-05T19:40:44.700Z,-1.60
2019-02-05T19:43:13.470Z,-1.80
2019-02-05T19:45:49.947Z,-1.70
2019-02-05T19:48:20.794Z,-1.80
2019-02-05T19:50:51.969Z,-1.70
2019-02-05T19:53:22.456Z,-1.70
2019-02-05T19:55:52.943Z,-1.60
2019-02-05T19:58:21.756Z,-1.70
2019-02-05T20:00:50.961Z,-1.80
2019-02-05T20:03:20.023Z,-1.80
2019-02-05T20:05:48.944Z,-1.80
2019-02-05T20:08:17.905Z,-1.80
2019-02-05T20:10:46.636Z,-1.90
2019-02-05T20:13:15.687Z,-1.80
2019-02-05T20:15:44.431Z,-1.90
2019-02-05T20:18:13.811Z,-1.70
2019-02-05T20:20:42.884Z,-1.60
2019-02-05T20:23:11.979Z,-1.60
2019-02-05T20:25:40.729Z,-1.60
2019-02-05T20:28:09.604Z,-1.70
2019-02-05T20:30:38.345Z,-1.70
2019-02-05T20:33:07.118Z,-1.60
2019-02-05T20:35:36.200Z,-1.60
2019-02-05T20:38:05.285Z,-1.60
2019-02-05T20:40:34.186Z,-1.60
2019-02-05T20:43:02.897Z,-1.60
2019-02-05T20:45:31.669Z,-1.60
2019-02-05T20:48:00.405Z,-1.70
2019-02-05T20:50:29.188Z,-1.60
2019-02-05T20:52:58.238Z,-1.70
2019-02-05T20:55:26.982Z,-1.70
2019-02-05T20:57:55.712Z,-1.70
2019-02-05T21:00:31.948Z,-1.60
2019-02-05T21:03:00.797Z,-1.50
2019-02-05T21:05:29.564Z,-1.60
2019-02-05T21:07:58.600Z,-1.70
2019-02-05T21:10:32.577Z,-1.60
2019-02-05T21:13:01.316Z,-1.60
2019-02-05T21:15:30.815Z,-1.50
2019-02-05T21:17:59.673Z,-1.60
2019-02-05T21:20:32.553Z,-1.70
2019-02-05T21:23:01.204Z,-1.60
2019-02-05T21:25:30.153Z,-1.70
2019-02-05T21:27:59.001Z,-1.70
2019-02-05T21:30:28.544Z,-1.70
2019-02-05T21:32:57.285Z,-1.70
2019-02-05T21:35:26.029Z,-1.60
2019-02-05T21:37:54.802Z,-1.60
2019-02-05T21:40:27.562Z,-1.60
2019-02-05T21:42:56.330Z,-1.70
2019-02-05T21:45:26.941Z,-1.70
2019-02-05T21:47:55.706Z,-1.70
2019-02-05T21:50:24.766Z,-1.60
2019-02-05T21:52:53.622Z,-1.60
2019-02-05T21:55:26.568Z,-1.60
2019-02-05T21:57:55.636Z,-1.60
2019-02-05T22:00:32.763Z,-1.60
2019-02-05T22:03:01.896Z,-1.40
2019-02-05T22:05:34.049Z,-1.50
2019-02-05T22:08:03.143Z,-1.50
2019-02-05T22:10:31.898Z,-1.60
2019-02-05T22:13:00.611Z,-1.50
2019-02-05T22:15:29.673Z,-1.40
2019-02-05T22:17:58.529Z,-1.40
2019-02-05T22:20:30.540Z,-1.40
2019-02-05T22:22:59.348Z,-1.40
2019-02-05T22:25:35.240Z,-1.40
2019-02-05T22:28:04.224Z,-1.40
2019-02-05T22:30:35.741Z,-1.50
2019-02-05T22:33:06.976Z,-1.50
2019-02-05T22:35:35.740Z,-1.50
2019-02-05T22:38:05.087Z,-1.40
2019-02-05T22:40:33.929Z,-1.50
2019-02-05T22:43:03.100Z,-1.50
2019-02-05T22:45:32.585Z,-1.50
2019-02-05T22:48:01.620Z,-1.40
2019-02-05T22:50:35.157Z,-1.40
2019-02-05T22:53:09.447Z,-1.40
2019-02-05T22:55:38.211Z,-1.40
2019-02-05T22:58:06.989Z,-1.30
2019-02-05T23:00:51.829Z,-1.40
2019-02-05T23:03:26.157Z,-1.40
2019-02-05T23:06:15.513Z,-1.40
2019-02-05T23:08:44.325Z,-1.40
2019-02-05T23:11:31.160Z,-1.50
2019-02-05T23:13:59.897Z,-1.50
2019-02-05T23:16:28.752Z,-1.50
2019-02-05T23:18:57.525Z,-1.50
2019-02-05T23:21:26.272Z,-1.50
2019-02-05T23:23:55.341Z,-1.50
2019-02-05T23:26:24.231Z,-1.60
2019-02-05T23:28:53.137Z,-1.60
2019-02-05T23:31:21.953Z,-1.60
2019-02-05T23:33:50.801Z,-1.60
2019-02-05T23:36:19.546Z,-1.60
2019-02-05T23:38:48.388Z,-1.70
2019-02-05T23:41:17.204Z,-1.70
2019-02-05T23:43:45.988Z,-1.70
2019-02-05T23:46:14.818Z,-1.70
2019-02-05T23:48:43.592Z,-1.80
2019-02-05T23:51:12.357Z,-1.80
2019-02-05T23:53:41.178Z,-1.80
2019-02-05T23:56:10.376Z,-1.80
2019-02-05T23:58:39.117Z,-1.80
